createdAt,value
2018-02-06T00:01:37.951Z,10.07
2018-02-06T00:04:04.544Z,9.47
2018-02-06T00:06:31.143Z,9.87
2018-02-06T00:08:57.765Z,9.43
2018-02-06T00:11:24.343Z,9.47
2018-02-06T00:13:50.935Z,9.33
2018-02-06T00:16:17.544Z,9.70
2018-02-06T00:18:44.152Z,9.80
2018-02-06T00:21:10.752Z,9.93
2018-02-06T00:23:37.355Z,9.67
2018-02-06T00:26:03.951Z,10.00
2018-02-06T00:28:30.543Z,9.83
2018-02-06T00:30:57.148Z,9.90
2018-02-06T00:33:23.743Z,10.50
2018-02-06T00:35:50.354Z,10.03
2018-02-06T00:38:16.948Z,9.90
2018-02-06T00:40:43.559Z,10.93
2018-02-06T00:43:10.200Z,10.37
2018-02-06T00:45:36.799Z,10.03
2018-02-06T00:48:03.415Z,10.73
2018-02-06T00:50:30.041Z,10.57
2018-02-06T00:52:56.639Z,9.70
2018-02-06T00:55:23.239Z,10.17
2018-02-06T00:57:49.851Z,10.20
2018-02-06T01:00:16.455Z,9.80
2018-02-06T01:02:43.048Z,9.90
2018-02-06T01:05:09.657Z,10.37
2018-02-06T01:07:36.260Z,9.80
2018-02-06T01:10:02.861Z,9.90
2018-02-06T01:12:29.812Z,10.23
2018-02-06T01:14:56.408Z,9.93
2018-02-06T01:17:22.999Z,9.60
2018-02-06T01:19:49.604Z,9.53
2018-02-06T01:22:16.198Z,9.80
2018-02-06T01:24:43.114Z,9.63
2018-02-06T01:27:09.731Z,10.47
2018-02-06T01:29:36.319Z,9.40
2018-02-06T01:32:02.922Z,9.60
2018-02-06T01:34:29.511Z,9.90
2018-02-06T01:36:56.623Z,9.97
2018-02-06T01:39:23.219Z,10.30
2018-02-06T01:41:49.823Z,9.83
2018-02-06T01:44:16.420Z,10.20
2018-02-06T01:46:43.019Z,9.40
2018-02-06T01:49:09.685Z,10.07
2018-02-06T01:51:36.291Z,10.23
2018-02-06T01:54:02.888Z,10.60
2018-02-06T01:56:29.499Z,9.63
2018-02-06T01:58:56.101Z,10.00
2018-02-06T02:01:22.779Z,10.73
2018-02-06T02:03:49.713Z,10.27
2018-02-06T02:06:16.311Z,10.13
2018-02-06T02:08:42.919Z,9.57
2018-02-06T02:11:09.515Z,9.70
2018-02-06T02:13:36.118Z,10.40
2018-02-06T02:16:02.720Z,10.17
2018-02-06T02:18:29.316Z,9.63
2018-02-06T02:20:55.924Z,10.30
2018-02-06T02:23:22.527Z,10.43
2018-02-06T02:25:49.123Z,9.60
2018-02-06T02:28:15.971Z,9.60
2018-02-06T02:30:42.572Z,9.53
2018-02-06T02:33:09.172Z,9.80
2018-02-06T02:35:35.788Z,9.27
2018-02-06T02:38:02.399Z,9.97
2018-02-06T02:40:28.995Z,10.47
2018-02-06T04:40:13.186Z,9.50
2018-02-06T04:42:39.821Z,9.30
2018-02-06T04:45:06.413Z,9.43
2018-02-06T04:47:33.015Z,9.87
2018-02-06T04:49:59.628Z,10.03
2018-02-06T04:52:26.235Z,10.20
2018-02-06T04:54:52.835Z,9.07
2018-02-06T04:57:19.452Z,10.07
2018-02-06T04:59:46.052Z,9.40
2018-02-06T05:02:12.656Z,10.20
2018-02-06T05:04:39.568Z,9.87
2018-02-06T05:07:06.180Z,9.50
2018-02-06T05:09:32.787Z,9.13
2018-02-06T05:11:59.383Z,9.30
2018-02-06T05:14:25.983Z,10.10
2018-02-06T05:16:52.584Z,10.17
2018-02-06T05:19:19.191Z,10.10
2018-02-06T05:21:45.803Z,10.10
2018-02-06T05:24:12.398Z,9.50
2018-02-06T05:26:39.011Z,9.90
2018-02-06T05:29:05.611Z,9.43
2018-02-06T05:31:32.228Z,9.83
2018-02-06T05:33:58.831Z,8.80
2018-02-06T05:36:25.436Z,9.20
2018-02-06T05:38:52.027Z,9.77
2018-02-06T05:41:18.635Z,10.40
2018-02-06T05:43:45.239Z,10.00
2018-02-06T05:46:11.843Z,10.20
2018-02-06T05:48:38.454Z,10.37
2018-02-06T05:51:05.069Z,9.80
2018-02-06T05:53:31.675Z,9.63
2018-02-06T05:55:58.274Z,10.13
2018-02-06T05:58:24.876Z,10.17
2018-02-06T06:00:51.477Z,9.60
2018-02-06T06:03:18.067Z,9.57
2018-02-06T06:05:44.919Z,10.43
2018-02-06T06:08:11.515Z,9.60
2018-02-06T06:10:38.107Z,8.90
2018-02-06T06:13:04.723Z,9.67
2018-02-06T06:15:31.324Z,10.07
2018-02-06T06:17:58.188Z,9.77
2018-02-06T06:20:24.787Z,10.10
2018-02-06T06:22:51.384Z,9.67
2018-02-06T06:25:17.992Z,10.07
2018-02-06T06:27:44.596Z,10.50
2018-02-06T06:30:11.205Z,10.33
2018-02-06T06:32:37.800Z,9.50
2018-02-06T06:35:04.391Z,9.57
2018-02-06T06:37:31.015Z,10.07
2018-02-06T06:39:58.244Z,10.20
2018-02-06T06:42:25.167Z,9.67
2018-02-06T06:44:51.771Z,10.43
2018-02-06T06:47:18.380Z,9.83
2018-02-06T06:49:45.000Z,9.87
2018-02-06T06:52:11.587Z,9.23
2018-02-06T06:54:38.191Z,9.87
2018-02-06T06:57:04.794Z,10.00
2018-02-06T06:59:31.396Z,10.13
2018-02-06T07:01:58.003Z,10.50
2018-02-06T07:04:24.604Z,10.30
2018-02-06T07:06:51.230Z,9.93
2018-02-06T07:09:17.829Z,10.77
2018-02-06T07:11:44.529Z,10.50
2018-02-06T07:14:11.144Z,10.17
2018-02-06T07:16:37.740Z,10.70
2018-02-06T07:19:04.368Z,11.13
2018-02-06T07:21:30.971Z,10.13
2018-02-06T07:23:57.575Z,10.50
2018-02-06T07:26:24.184Z,10.30
2018-02-06T07:28:50.797Z,10.43
2018-02-06T07:31:17.395Z,10.03
2018-02-06T07:33:43.992Z,10.30
2018-02-06T07:36:10.586Z,10.53
2018-02-06T07:38:37.195Z,10.20
2018-02-06T07:41:03.797Z,10.20
2018-02-06T07:43:30.400Z,10.43
2018-02-06T07:45:56.998Z,10.90
2018-02-06T07:48:23.604Z,10.40
2018-02-06T07:50:54.163Z,10.27
2018-02-06T07:53:20.759Z,10.87
2018-02-06T07:55:47.394Z,10.20
2018-02-06T07:58:14.007Z,10.80
2018-02-06T08:00:40.607Z,10.20
2018-02-06T08:03:07.217Z,10.37
2018-02-06T08:05:33.848Z,10.57
2018-02-06T08:08:00.442Z,10.30
2018-02-06T08:10:27.068Z,10.27
2018-02-06T08:12:53.639Z,11.13
2018-02-06T08:15:20.243Z,10.37
2018-02-06T08:17:46.847Z,11.10
2018-02-06T08:20:13.463Z,11.10
2018-02-06T08:22:40.067Z,10.53
2018-02-06T08:25:06.671Z,11.30
2018-02-06T08:27:33.375Z,10.23
2018-02-06T08:29:59.976Z,10.37
2018-02-06T08:32:26.587Z,11.80
2018-02-06T08:34:53.188Z,10.77
2018-02-06T08:37:19.791Z,11.97
2018-02-06T08:39:46.404Z,10.53
2018-02-06T08:42:13.004Z,11.30
2018-02-06T08:44:39.624Z,12.13
2018-02-06T08:47:06.245Z,12.07
2018-02-06T08:49:32.828Z,11.10
2018-02-06T08:51:59.447Z,10.63
2018-02-06T08:54:26.227Z,12.23
2018-02-06T08:56:52.828Z,11.57
2018-02-06T08:59:19.441Z,11.43
2018-02-06T09:01:46.036Z,10.43
2018-02-06T09:04:12.635Z,11.50
2018-02-06T09:06:39.391Z,10.53
2018-02-06T09:09:05.982Z,10.90
2018-02-06T09:11:32.601Z,11.70
2018-02-06T09:13:59.193Z,11.60
2018-02-06T09:16:25.827Z,12.03
2018-02-06T09:18:52.420Z,12.40
2018-02-06T09:21:20.951Z,11.80
2018-02-06T09:23:47.559Z,11.90
2018-02-06T09:26:14.168Z,12.47
2018-02-06T09:28:40.780Z,12.30
2018-02-06T09:31:07.392Z,12.80
2018-02-06T09:33:33.989Z,12.27
2018-02-06T09:36:00.592Z,12.30
2018-02-06T09:38:27.196Z,11.73
2018-02-06T09:40:53.801Z,11.90
2018-02-06T09:43:20.678Z,11.80
2018-02-06T09:45:47.284Z,12.10
2018-02-06T09:48:13.893Z,12.23
2018-02-06T09:50:40.504Z,13.17
2018-02-06T09:53:07.108Z,12.30
2018-02-06T09:55:33.720Z,12.33
2018-02-06T09:58:00.315Z,12.20
2018-02-06T10:00:26.912Z,11.87
2018-02-06T10:02:53.523Z,13.27
2018-02-06T10:05:20.123Z,12.90
2018-02-06T10:07:46.982Z,11.90
2018-02-06T10:10:13.578Z,11.93
2018-02-06T10:12:40.175Z,12.50
2018-02-06T10:15:06.779Z,13.17
2018-02-06T10:17:33.382Z,12.00
2018-02-06T10:20:00.032Z,13.23
2018-02-06T10:22:26.632Z,12.10
2018-02-06T10:24:53.219Z,11.73
2018-02-06T10:27:19.818Z,12.27
2018-02-06T10:29:46.419Z,12.00
2018-02-06T10:32:13.131Z,12.13
2018-02-06T10:34:39.738Z,12.77
2018-02-06T10:37:06.342Z,13.03
2018-02-06T10:39:32.943Z,11.93
2018-02-06T10:41:59.555Z,11.60
2018-02-06T10:44:26.159Z,12.47
2018-02-06T10:46:52.779Z,12.10
2018-02-06T10:49:19.371Z,13.33
2018-02-06T10:51:45.970Z,14.20
2018-02-06T10:54:12.567Z,13.13
2018-02-06T10:56:39.176Z,13.10
2018-02-06T10:59:05.767Z,14.30
2018-02-06T11:01:33.300Z,14.13
2018-02-06T11:03:59.907Z,12.43
2018-02-06T11:06:26.552Z,13.20
2018-02-06T11:08:53.447Z,13.10
2018-02-06T11:11:20.067Z,11.67
2018-02-06T11:13:46.666Z,12.50
2018-02-06T11:16:13.271Z,13.03
2018-02-06T11:18:39.862Z,12.60
2018-02-06T11:21:06.572Z,12.97
2018-02-06T11:23:33.167Z,12.47
2018-02-06T11:25:59.783Z,12.73
2018-02-06T11:28:26.395Z,13.23
2018-02-06T11:30:52.987Z,12.53
2018-02-06T11:33:19.628Z,11.90
2018-02-06T11:35:46.227Z,12.20
2018-02-06T11:38:12.836Z,12.97
2018-02-06T11:40:39.456Z,12.60
2018-02-06T11:43:06.160Z,13.97
2018-02-06T11:45:33.010Z,13.10
2018-02-06T11:47:59.604Z,12.40
2018-02-06T11:50:27.135Z,13.37
2018-02-06T11:52:53.731Z,13.00
2018-02-06T11:55:20.335Z,12.90
2018-02-06T11:57:46.964Z,12.80
2018-02-06T12:00:13.556Z,12.03
2018-02-06T12:02:40.155Z,12.57
2018-02-06T12:05:07.139Z,12.17
2018-02-06T12:07:33.754Z,12.07
2018-02-06T12:10:00.352Z,12.43
2018-02-06T12:12:26.963Z,12.50
2018-02-06T12:14:53.554Z,14.20
2018-02-06T12:17:20.150Z,12.97
2018-02-06T12:19:46.751Z,13.83
2018-02-06T12:22:13.348Z,12.47
2018-02-06T12:24:39.975Z,12.20
2018-02-06T12:27:06.571Z,12.30
2018-02-06T12:29:33.203Z,12.80
2018-02-06T12:31:59.812Z,12.47
2018-02-06T12:34:26.399Z,13.40
2018-02-06T12:36:52.999Z,12.97
2018-02-06T12:39:19.591Z,13.17
2018-02-06T12:41:46.210Z,12.27
2018-02-06T12:44:12.823Z,13.10
2018-02-06T12:46:39.431Z,12.90
2018-02-06T12:49:06.028Z,13.13
2018-02-06T12:51:32.622Z,12.43
2018-02-06T12:53:59.226Z,13.33
2018-02-06T12:56:25.826Z,13.50
2018-02-06T12:58:52.530Z,13.00
2018-02-06T13:01:19.134Z,12.73
2018-02-06T13:03:45.736Z,13.47
2018-02-06T13:06:12.338Z,13.57
2018-02-06T13:08:39.438Z,12.47
2018-02-06T13:11:06.154Z,12.47
2018-02-06T13:13:32.754Z,13.60
2018-02-06T13:15:59.351Z,13.30
2018-02-06T13:18:25.951Z,13.20
2018-02-06T13:20:52.542Z,12.97
2018-02-06T13:23:19.146Z,13.00
2018-02-06T13:25:45.747Z,12.70
2018-02-06T13:28:12.343Z,13.27
2018-02-06T13:30:38.946Z,12.50
2018-02-06T13:33:05.544Z,12.30
2018-02-06T13:35:32.163Z,13.03
2018-02-06T13:37:58.766Z,13.43
2018-02-06T13:40:25.362Z,12.80
2018-02-06T13:42:51.965Z,13.00
2018-02-06T13:45:18.559Z,12.90
2018-02-06T13:47:45.290Z,12.63
2018-02-06T13:50:11.858Z,13.73
2018-02-06T13:52:38.455Z,13.70
2018-02-06T13:55:05.063Z,13.23
2018-02-06T13:57:35.399Z,13.23
2018-02-06T14:00:02.011Z,13.23
2018-02-06T14:02:28.617Z,13.33
2018-02-06T14:04:55.210Z,13.73
2018-02-06T14:07:21.829Z,13.73
2018-02-06T14:09:48.434Z,13.37
2018-02-06T14:12:15.304Z,13.27
2018-02-06T14:14:41.903Z,13.37
2018-02-06T14:17:08.503Z,13.40
2018-02-06T14:19:35.108Z,13.97
2018-02-06T14:22:01.723Z,13.00
2018-02-06T14:24:28.663Z,13.30
2018-02-06T14:26:55.261Z,14.47
2018-02-06T15:13:01.897Z,12.60
2018-02-06T15:18:01.439Z,14.60
2018-02-06T15:20:28.058Z,14.40
2018-02-06T15:22:54.655Z,14.37
2018-02-06T15:25:21.511Z,14.90
2018-02-06T15:27:48.120Z,15.47
2018-02-06T15:30:14.729Z,15.67
2018-02-06T15:32:41.399Z,14.57
2018-02-06T15:35:07.991Z,16.00
2018-02-06T15:37:34.706Z,15.87
2018-02-06T15:40:01.304Z,14.63
2018-02-06T15:42:27.903Z,14.70
2018-02-06T15:44:54.566Z,15.30
2018-02-06T15:47:21.151Z,15.43
2018-02-06T15:49:48.059Z,15.27
2018-02-06T15:52:14.655Z,15.40
2018-02-06T15:54:41.256Z,15.53
2018-02-06T15:57:07.903Z,15.00
2018-02-06T15:59:34.535Z,15.07
2018-02-06T16:02:01.467Z,15.40
2018-02-06T16:04:28.082Z,15.57
2018-02-06T16:06:54.672Z,15.13
2018-02-06T16:09:21.316Z,16.30
2018-02-06T16:11:47.915Z,16.13
2018-02-06T16:14:14.835Z,16.50
2018-02-06T16:16:42.407Z,17.43
2018-02-06T16:19:09.015Z,17.47
2018-02-06T16:21:35.624Z,15.03
2018-02-06T16:24:02.242Z,15.33
2018-02-06T16:26:28.935Z,17.00
2018-02-06T16:28:55.539Z,18.13
2018-02-06T16:31:22.135Z,15.53
2018-02-06T16:33:48.780Z,16.90
2018-02-06T16:36:15.393Z,16.57
2018-02-06T16:38:42.355Z,16.77
2018-02-06T16:41:08.956Z,16.00
2018-02-06T16:43:35.555Z,16.20
2018-02-06T16:46:02.168Z,15.67
2018-02-06T16:48:28.771Z,15.53
2018-02-06T16:50:55.816Z,16.40
2018-02-06T16:53:22.434Z,15.50
2018-02-06T16:55:49.020Z,16.33
2018-02-06T16:58:15.633Z,16.30
2018-02-06T17:00:42.231Z,16.27
2018-02-06T17:03:08.948Z,16.50
2018-02-06T17:05:35.544Z,15.87
2018-02-06T17:08:02.153Z,16.13
2018-02-06T17:10:28.776Z,16.40
2018-02-06T17:12:55.378Z,16.33
2018-02-06T17:15:22.319Z,17.07
2018-02-06T17:17:48.933Z,16.63
2018-02-06T17:20:15.528Z,17.23
2018-02-06T17:22:42.139Z,16.97
2018-02-06T17:25:08.740Z,17.40
2018-02-06T17:27:35.467Z,17.67
2018-02-06T17:30:09.976Z,16.60
2018-02-06T17:32:36.688Z,16.33
2018-02-06T17:35:03.299Z,17.00
2018-02-06T17:37:29.892Z,17.07
2018-02-06T17:39:57.204Z,16.43
2018-02-06T17:42:24.822Z,16.87
2018-02-06T17:44:51.452Z,17.10
2018-02-06T17:47:18.055Z,17.07
2018-02-06T17:49:44.664Z,17.27
2018-02-06T17:52:11.268Z,16.10
2018-02-06T17:54:37.879Z,17.27
2018-02-06T17:57:04.517Z,16.93
2018-02-06T17:59:31.111Z,16.47
2018-02-06T18:01:57.712Z,17.40
2018-02-06T18:04:24.320Z,17.03
2018-02-06T18:06:50.927Z,17.33
2018-02-06T18:09:17.635Z,16.80
2018-02-06T18:11:44.237Z,17.03
2018-02-06T18:14:10.836Z,17.40
2018-02-06T18:16:37.443Z,17.50
2018-02-06T18:19:04.047Z,16.33
2018-02-06T18:21:30.674Z,16.97
2018-02-06T18:23:57.279Z,17.03
2018-02-06T18:26:23.879Z,17.00
2018-02-06T18:28:50.496Z,16.07
2018-02-06T18:31:17.199Z,16.23
2018-02-06T18:33:43.779Z,16.50
2018-02-06T18:36:10.383Z,16.87
2018-02-06T18:38:36.972Z,17.50
2018-02-06T18:41:03.603Z,17.80
2018-02-06T18:43:30.204Z,17.70
2018-02-06T18:45:56.911Z,18.80
2018-02-06T18:48:23.524Z,18.07
2018-02-06T18:50:50.115Z,17.73
2018-02-06T18:53:16.752Z,17.20
2018-02-06T18:55:43.359Z,17.83
2018-02-06T18:58:09.960Z,18.00
2018-02-06T19:00:36.577Z,17.10
2018-02-06T19:03:03.175Z,17.10
2018-02-06T19:05:29.772Z,17.70
2018-02-06T19:07:56.371Z,16.93
2018-02-06T19:10:22.992Z,17.70
2018-02-06T19:12:49.611Z,19.23
2018-02-06T19:15:17.419Z,19.97
2018-02-06T19:17:44.028Z,18.83
2018-02-06T19:20:10.631Z,17.40
2018-02-06T19:22:37.227Z,18.70
2018-02-06T19:25:04.112Z,20.27
2018-02-06T19:27:30.711Z,19.00
2018-02-06T19:29:57.316Z,18.57
2018-02-06T19:32:23.939Z,18.87
2018-02-06T19:34:50.541Z,17.80
2018-02-06T19:37:17.146Z,18.87
2018-02-06T19:39:43.752Z,17.97
2018-02-06T19:42:10.356Z,18.10
2018-02-06T19:44:36.960Z,18.80
2018-02-06T19:47:03.558Z,19.67
2018-02-06T19:49:30.183Z,18.80
2018-02-06T19:51:56.787Z,18.70
2018-02-06T19:54:23.391Z,18.07
2018-02-06T19:56:49.996Z,17.70
2018-02-06T19:59:16.591Z,18.50
2018-02-06T20:01:43.204Z,20.80
2018-02-06T20:04:09.807Z,18.70
2018-02-06T20:06:36.408Z,19.27
2018-02-06T20:09:03.015Z,18.90
2018-02-06T20:11:29.616Z,17.30
2018-02-06T20:13:56.511Z,18.20
2018-02-06T20:16:23.119Z,17.97
2018-02-06T20:18:49.715Z,17.07
2018-02-06T20:21:16.323Z,17.73
2018-02-06T20:23:42.934Z,19.20
2018-02-06T20:26:09.614Z,19.03
2018-02-06T20:28:36.220Z,18.43
2018-02-06T20:31:02.821Z,18.13
2018-02-06T20:33:29.424Z,18.80
2018-02-06T20:35:56.024Z,19.27
2018-02-06T20:38:22.635Z,19.20
2018-02-06T20:40:49.240Z,19.60
2018-02-06T20:43:15.843Z,19.00
2018-02-06T20:45:42.448Z,18.73
2018-02-06T20:48:10.041Z,18.20
2018-02-06T20:50:36.684Z,18.23
2018-02-06T20:53:03.281Z,19.10
2018-02-06T20:55:30.699Z,18.63
2018-02-06T20:57:57.300Z,17.90
2018-02-06T21:00:23.899Z,18.53
2018-02-06T21:02:50.611Z,19.00
2018-02-06T21:05:17.215Z,18.90
2018-02-06T21:07:44.552Z,17.80
2018-02-06T21:10:11.155Z,18.30
2018-02-06T21:12:37.764Z,17.53
2018-02-06T21:15:04.774Z,19.90
2018-02-06T21:17:37.757Z,19.40
2018-02-06T21:20:09.405Z,18.70
2018-02-06T21:22:36.200Z,19.50
2018-02-06T21:25:02.802Z,18.07
2018-02-06T21:27:29.440Z,18.63
2018-02-06T21:29:56.008Z,19.80
2018-02-06T21:32:22.671Z,19.97
2018-02-06T21:34:49.275Z,18.97
2018-02-06T21:37:15.908Z,18.80
2018-02-06T21:39:42.509Z,18.90
2018-02-06T21:42:09.108Z,20.87
2018-02-06T21:44:35.727Z,22.80
2018-02-06T21:47:02.327Z,20.97
2018-02-06T21:49:28.936Z,19.87
2018-02-06T21:51:55.556Z,19.00
2018-02-06T21:54:22.160Z,19.47
2018-02-06T21:56:48.875Z,18.47
2018-02-06T21:59:15.492Z,18.50
2018-02-06T22:01:42.091Z,19.27
2018-02-06T22:04:08.700Z,20.07
2018-02-06T22:06:35.298Z,20.13
2018-02-06T22:09:01.912Z,19.90
2018-02-06T22:11:28.508Z,19.43
2018-02-06T22:13:55.107Z,19.60
2018-02-06T22:16:21.721Z,21.40
2018-02-06T22:18:48.315Z,18.70
2018-02-06T22:21:14.924Z,19.87
2018-02-06T22:23:41.523Z,22.20
2018-02-06T22:26:08.123Z,21.13
2018-02-06T22:28:34.723Z,19.90
2018-02-06T22:31:01.332Z,19.10
2018-02-06T22:33:27.940Z,18.97
2018-02-06T22:35:54.539Z,19.37
2018-02-06T22:38:21.147Z,18.27
2018-02-06T22:40:47.747Z,19.00
2018-02-06T22:43:14.349Z,17.97
2018-02-06T22:45:40.949Z,17.50
2018-02-06T22:48:07.552Z,17.80
2018-02-06T22:50:34.147Z,19.23
2018-02-06T22:53:00.751Z,19.73
2018-02-06T22:55:27.359Z,17.63
2018-02-06T22:57:53.959Z,18.10
2018-02-06T23:00:23.697Z,17.90
2018-02-06T23:02:50.294Z,18.10
2018-02-06T23:05:16.895Z,18.13
2018-02-06T23:07:43.502Z,18.40
2018-02-06T23:10:10.097Z,20.20
2018-02-06T23:12:37.015Z,19.17
2018-02-06T23:15:03.643Z,19.40
2018-02-06T23:17:30.243Z,19.33
2018-02-06T23:19:56.848Z,20.13
2018-02-06T23:22:23.460Z,20.77
2018-02-06T23:24:50.071Z,19.33
2018-02-06T23:27:16.674Z,19.63
2018-02-06T23:29:43.272Z,19.03
2018-02-06T23:32:09.880Z,20.30
2018-02-06T23:34:36.475Z,20.47
2018-02-06T23:37:03.087Z,20.80
2018-02-06T23:39:29.684Z,21.13
2018-02-06T23:41:56.280Z,19.90
2018-02-06T23:44:22.887Z,20.00
2018-02-06T23:46:49.482Z,21.23
2018-02-06T23:49:16.087Z,20.37
2018-02-06T23:51:42.683Z,19.70
2018-02-06T23:54:09.279Z,20.40
2018-02-06T23:56:35.897Z,20.57
2018-02-06T23:59:02.507Z,20.10
